Time;durP1;ratioP1;P1;durP2;ratioP2;P2;SDS_P1;SDS_P2;PMS_P1;PMS_P2;Temp;Humidity;BMP_temperature;BMP_pressure;BME280_temperature;BME280_humidity;BME280_pressure;Samples;Min_cycle;Max_cycle;Signal;HPM_P1;HPM_P2
2023/03/16 00:02:02;;;;;;;6.57;5.55;;;2.60;96.60;;;;;;5088605;28;20611;-74
2023/03/16 00:04:31;;;;;;;6.20;5.60;;;2.60;96.60;;;;;;5087864;28;20414;-74
2023/03/16 00:06:58;;;;;;;6.22;5.63;;;2.60;96.70;;;;;;5087616;28;20412;-74
2023/03/16 00:09:29;;;;;;;6.47;5.70;;;2.60;96.80;;;;;;5074076;28;20776;-74
2023/03/16 00:11:56;;;;;;;5.80;5.30;;;2.60;96.60;;;;;;5071032;28;20494;-73
2023/03/16 00:14:23;;;;;;;6.73;5.40;;;2.60;96.50;;;;;;5061121;28;20470;-75
2023/03/16 00:16:50;;;;;;;5.90;5.40;;;2.60;96.50;;;;;;5046290;28;20413;-73
2023/03/16 00:19:17;;;;;;;6.97;5.65;;;2.60;96.40;;;;;;5047118;28;20418;-74
2023/03/16 00:21:45;;;;;;;6.27;5.67;;;2.60;96.70;;;;;;5046798;28;20795;-75
2023/03/16 00:24:11;;;;;;;5.63;4.70;;;2.60;96.50;;;;;;5066231;28;20531;-72
2023/03/16 00:26:38;;;;;;;5.32;4.90;;;2.50;96.50;;;;;;5082263;28;20414;-72
2023/03/16 00:29:05;;;;;;;5.68;5.00;;;2.50;96.80;;;;;;5089390;28;20426;-73
2023/03/16 00:31:32;;;;;;;5.80;4.95;;;2.50;96.90;;;;;;5088212;28;20868;-72
2023/03/16 00:34:01;;;;;;;4.90;4.40;;;2.50;96.80;;;;;;5087958;28;20517;-72
2023/03/16 00:36:29;;;;;;;8.13;5.30;;;2.50;96.70;;;;;;5085645;28;20430;-72
2023/03/16 00:38:57;;;;;;;5.40;4.90;;;2.50;96.90;;;;;;5075371;28;20423;-74
2023/03/16 00:41:24;;;;;;;6.47;5.00;;;2.50;96.70;;;;;;5086865;28;20779;-74
2023/03/16 00:43:52;;;;;;;5.18;4.68;;;2.50;96.60;;;;;;5078188;28;20435;-75
2023/03/16 00:46:25;;;;;;;6.00;5.18;;;2.50;96.70;;;;;;5067782;28;20422;-74
2023/03/16 00:48:52;;;;;;;5.63;5.00;;;2.50;96.60;;;;;;5067625;28;20529;-75
2023/03/16 00:51:19;;;;;;;6.35;5.40;;;2.50;96.80;;;;;;5063975;28;20419;-74
2023/03/16 00:53:46;;;;;;;7.15;5.32;;;2.50;97.00;;;;;;5071172;28;20490;-72
2023/03/16 00:56:15;;;;;;;5.73;4.93;;;2.50;96.70;;;;;;5087566;28;20437;-73
2023/03/16 00:58:42;;;;;;;5.50;4.70;;;2.60;96.20;;;;;;5088438;28;20797;-73
2023/03/16 01:01:12;;;;;;;5.78;5.28;;;2.60;96.30;;;;;;5088068;28;20410;-72
2023/03/16 01:03:39;;;;;;;5.07;4.68;;;2.70;96.30;;;;;;5087222;28;20868;-73
2023/03/16 01:06:09;;;;;;;5.88;4.45;;;2.70;95.90;;;;;;5081116;28;20544;-72
2023/03/16 01:08:36;;;;;;;5.85;4.82;;;2.70;95.50;;;;;;5073826;28;20447;-73
2023/03/16 01:11:04;;;;;;;5.30;4.78;;;2.70;95.70;;;;;;5067931;28;20457;-75
2023/03/16 01:13:32;;;;;;;5.00;4.50;;;2.70;95.60;;;;;;5064725;28;20416;-73
2023/03/16 01:15:59;;;;;;;5.13;4.60;;;2.70;95.50;;;;;;5048277;28;20468;-74
2023/03/16 01:18:26;;;;;;;5.75;5.25;;;2.70;95.60;;;;;;5047049;28;20416;-73
2023/03/16 01:20:53;;;;;;;5.50;4.43;;;2.80;95.60;;;;;;5051242;28;20446;-72
2023/03/16 01:23:20;;;;;;;5.85;4.68;;;2.80;95.60;;;;;;5074340;28;20411;-73
2023/03/16 01:25:51;;;;;;;5.90;4.72;;;2.80;95.20;;;;;;5067280;28;20423;-73
2023/03/16 01:28:19;;;;;;;5.00;4.50;;;2.80;95.20;;;;;;5067350;28;20435;-74
2023/03/16 01:30:47;;;;;;;5.25;4.70;;;2.80;95.60;;;;;;5069624;28;20893;-72
2023/03/16 01:33:14;;;;;;;5.55;4.70;;;2.80;94.90;;;;;;5067447;28;20885;-74
2023/03/16 01:35:41;;;;;;;5.68;5.05;;;2.80;94.60;;;;;;5072037;28;20942;-73
2023/03/16 01:38:07;;;;;;;4.80;4.40;;;2.80;94.80;;;;;;5080175;28;20417;-73
2023/03/16 01:40:35;;;;;;;6.57;5.10;;;2.80;94.90;;;;;;5091350;28;20414;-75
2023/03/16 01:43:04;;;;;;;4.80;4.30;;;2.80;94.80;;;;;;5091071;28;20514;-73
2023/03/16 01:46:09;;;;;;;6.10;4.20;;;2.70;95.10;;;;;;5090406;28;20409;-73
2023/03/16 01:48:40;;;;;;;5.70;4.50;;;2.70;94.60;;;;;;5090272;28;20548;-73
2023/03/16 01:51:09;;;;;;;4.45;4.00;;;2.80;94.90;;;;;;5074443;28;20443;-73
2023/03/16 01:53:38;;;;;;;4.40;4.00;;;2.70;94.80;;;;;;5087423;28;20466;-72
2023/03/16 01:56:09;;;;;;;4.78;3.92;;;2.70;94.90;;;;;;5090813;28;20430;-72
2023/03/16 01:58:38;;;;;;;5.13;4.63;;;2.70;94.70;;;;;;5089933;28;20880;-74
2023/03/16 02:01:07;;;;;;;4.53;4.13;;;2.70;94.90;;;;;;5092441;28;20418;-73
2023/03/16 02:03:34;;;;;;;4.70;4.30;;;2.70;94.70;;;;;;5096050;28;20851;-72
2023/03/16 02:06:06;;;;;;;5.00;3.90;;;2.70;94.70;;;;;;5087099;28;20399;-73
2023/03/16 02:08:34;;;;;;;4.82;3.70;;;2.70;94.70;;;;;;5101300;28;20415;-74
2023/03/16 02:11:01;;;;;;;4.40;4.00;;;2.70;94.30;;;;;;5081729;28;20427;-72
2023/03/16 02:13:28;;;;;;;4.60;4.20;;;2.80;94.70;;;;;;5082289;28;20435;-74
2023/03/16 02:15:55;;;;;;;6.10;4.40;;;2.80;94.60;;;;;;5052758;28;20464;-74
2023/03/16 02:18:24;;;;;;;4.88;4.30;;;2.80;94.50;;;;;;5051685;28;20443;-72
2023/03/16 02:20:56;;;;;;;4.75;4.35;;;2.80;94.40;;;;;;5076030;28;20446;-72
2023/03/16 02:23:25;;;;;;;4.97;4.47;;;2.80;94.10;;;;;;5091204;28;20416;-74
2023/03/16 02:26:00;;;;;;;4.70;3.70;;;2.80;94.30;;;;;;5085312;28;20543;-73
2023/03/16 02:28:33;;;;;;;4.38;3.97;;;2.80;94.40;;;;;;5094159;28;20478;-73
2023/03/16 02:31:02;;;;;;;4.07;3.65;;;2.70;94.30;;;;;;5098484;28;20426;-74
2023/03/16 02:33:31;;;;;;;4.33;3.70;;;2.70;94.30;;;;;;5084142;28;20436;-74
2023/03/16 02:35:58;;;;;;;4.28;3.85;;;2.70;94.20;;;;;;5078760;28;20435;-73
2023/03/16 02:38:25;;;;;;;4.43;3.70;;;2.70;94.30;;;;;;5102457;28;20406;-72
2023/03/16 02:40:59;;;;;;;4.03;3.70;;;2.70;94.60;;;;;;5096154;28;20502;-74
2023/03/16 02:43:32;;;;;;;5.10;3.60;;;2.70;94.60;;;;;;5090862;28;20493;-72
2023/03/16 02:46:03;;;;;;;4.47;4.07;;;2.70;94.40;;;;;;5083472;28;20453;-72
2023/03/16 02:48:37;;;;;;;4.05;3.50;;;2.70;94.30;;;;;;5080746;28;20412;-72
2023/03/16 02:51:04;;;;;;;4.60;3.53;;;2.70;94.70;;;;;;5080879;28;20406;-72
2023/03/16 02:53:31;;;;;;;4.07;3.63;;;2.60;94.70;;;;;;5080591;28;20431;-72
2023/03/16 02:55:57;;;;;;;4.78;3.75;;;2.60;94.60;;;;;;5079941;28;20431;-71
2023/03/16 02:58:24;;;;;;;5.20;3.72;;;2.60;94.70;;;;;;5091892;28;20412;-73
2023/03/16 03:00:52;;;;;;;4.13;3.40;;;2.60;94.50;;;;;;5067359;28;20409;-74
2023/03/16 03:03:20;;;;;;;4.13;3.72;;;2.70;94.50;;;;;;5062827;28;20429;-71
2023/03/16 03:05:47;;;;;;;4.55;3.42;;;2.60;94.50;;;;;;5072268;28;20516;-73
2023/03/16 03:08:14;;;;;;;5.27;3.70;;;2.60;94.50;;;;;;5078580;28;20420;-72
2023/03/16 03:10:41;;;;;;;3.78;3.20;;;2.60;94.50;;;;;;5068877;28;20843;-74
2023/03/16 03:13:07;;;;;;;4.10;3.70;;;2.60;94.50;;;;;;5068537;28;20419;-75
2023/03/16 03:15:35;;;;;;;4.57;3.50;;;2.70;94.20;;;;;;5068368;28;20459;-73
2023/03/16 03:18:02;;;;;;;3.90;3.30;;;2.70;94.10;;;;;;5068496;28;20415;-74
2023/03/16 03:20:30;;;;;;;3.45;3.15;;;2.70;94.10;;;;;;5066800;28;20433;-74
2023/03/16 03:22:57;;;;;;;3.40;3.10;;;2.70;94.10;;;;;;5075211;28;20446;-75
2023/03/16 03:25:24;;;;;;;3.70;3.35;;;2.70;93.90;;;;;;5069037;28;20885;-74
2023/03/16 03:27:53;;;;;;;3.70;3.30;;;2.70;93.90;;;;;;5069846;28;20530;-73
2023/03/16 03:30:23;;;;;;;4.47;3.35;;;2.70;94.10;;;;;;5071887;28;20415;-73
2023/03/16 03:32:51;;;;;;;4.00;3.10;;;2.70;93.90;;;;;;5076191;28;20814;-73
2023/03/16 03:35:18;;;;;;;4.70;3.50;;;2.70;94.00;;;;;;5068794;28;20486;-74
2023/03/16 03:37:46;;;;;;;4.47;3.00;;;2.70;94.20;;;;;;5080357;28;20485;-74
2023/03/16 03:40:15;;;;;;;4.47;3.40;;;2.60;94.30;;;;;;5089573;28;20447;-74
2023/03/16 03:42:43;;;;;;;3.90;3.07;;;2.60;94.10;;;;;;5087504;28;20468;-74
2023/03/16 03:45:11;;;;;;;3.78;3.47;;;2.60;94.40;;;;;;5088884;28;20418;-75
2023/03/16 03:47:38;;;;;;;5.82;3.50;;;2.60;94.50;;;;;;5081270;28;20887;-72
2023/03/16 03:50:07;;;;;;;3.97;3.53;;;2.50;94.60;;;;;;5073464;28;20433;-74
2023/03/16 03:52:33;;;;;;;5.53;3.50;;;2.60;94.60;;;;;;5077665;28;20422;-74
2023/03/16 03:55:01;;;;;;;3.65;3.35;;;2.60;94.80;;;;;;5068565;28;20492;-74
2023/03/16 03:57:28;;;;;;;4.38;3.80;;;2.50;94.50;;;;;;5066564;28;20427;-74
2023/03/16 03:59:55;;;;;;;5.18;2.90;;;2.60;94.50;;;;;;5067523;28;20419;-74
2023/03/16 04:02:22;;;;;;;3.85;3.20;;;2.60;94.60;;;;;;5067303;28;20855;-74
2023/03/16 04:04:49;;;;;;;3.40;3.10;;;2.60;94.40;;;;;;5070518;28;20442;-72
2023/03/16 04:07:15;;;;;;;3.28;2.97;;;2.60;94.40;;;;;;5074948;28;20407;-74
2023/03/16 04:09:42;;;;;;;4.63;3.45;;;2.60;94.30;;;;;;5067368;28;20435;-74
2023/03/16 04:12:11;;;;;;;3.80;3.50;;;2.60;94.00;;;;;;5066006;28;20411;-74
2023/03/16 04:14:38;;;;;;;3.40;3.00;;;2.60;94.00;;;;;;5067694;28;20412;-74
2023/03/16 04:17:06;;;;;;;5.30;3.40;;;2.70;93.90;;;;;;5066313;28;20459;-74
2023/03/16 04:19:33;;;;;;;3.70;3.30;;;2.70;93.80;;;;;;5069732;28;20444;-74
2023/03/16 04:21:59;;;;;;;3.70;3.40;;;2.70;94.20;;;;;;5082636;28;20410;-74
2023/03/16 04:24:26;;;;;;;3.83;3.35;;;2.70;93.80;;;;;;5051422;28;20827;-74
2023/03/16 04:26:53;;;;;;;6.07;3.75;;;2.70;93.70;;;;;;5047004;28;20784;-74
2023/03/16 04:29:21;;;;;;;4.18;3.78;;;2.70;93.40;;;;;;5047199;28;20413;-73
2023/03/16 04:31:48;;;;;;;4.50;3.80;;;2.80;93.50;;;;;;5048224;28;20421;-73
2023/03/16 04:34:15;;;;;;;3.50;3.20;;;2.80;93.40;;;;;;5053132;28;20745;-74
2023/03/16 04:36:42;;;;;;;4.10;3.70;;;2.80;93.40;;;;;;5074961;28;20429;-74
2023/03/16 04:39:09;;;;;;;5.32;3.53;;;2.80;93.60;;;;;;5086867;28;20425;-74
2023/03/16 04:41:36;;;;;;;3.80;3.50;;;2.80;93.40;;;;;;5087026;28;20733;-74
2023/03/16 04:44:03;;;;;;;4.20;3.80;;;2.80;93.60;;;;;;5087108;28;20448;-76
2023/03/16 04:46:32;;;;;;;4.68;3.75;;;2.80;93.40;;;;;;5086863;28;20425;-73
2023/03/16 04:48:59;;;;;;;4.65;3.90;;;2.80;93.60;;;;;;5076661;28;20910;-74
2023/03/16 04:51:26;;;;;;;4.13;3.80;;;2.80;93.90;;;;;;5067466;28;20411;-74
2023/03/16 04:53:53;;;;;;;5.20;3.70;;;2.90;93.50;;;;;;5072481;28;20524;-74
2023/03/16 04:56:20;;;;;;;4.55;3.72;;;2.80;93.50;;;;;;5067355;28;20495;-73
2023/03/16 04:58:48;;;;;;;4.40;4.00;;;2.90;93.50;;;;;;5067658;28;20418;-75
2023/03/16 05:01:17;;;;;;;4.97;4.05;;;2.90;93.40;;;;;;5067955;28;20436;-73
2023/03/16 05:03:45;;;;;;;5.13;4.63;;;2.90;93.50;;;;;;5075673;28;20459;-74
2023/03/16 05:06:12;;;;;;;4.63;4.22;;;2.90;93.60;;;;;;5075033;28;20416;-74
2023/03/16 05:08:39;;;;;;;4.50;4.10;;;2.90;93.50;;;;;;5067217;28;20411;-74
2023/03/16 05:11:06;;;;;;;4.68;4.10;;;3.00;93.40;;;;;;5066707;28;20410;-74
2023/03/16 05:13:33;;;;;;;5.20;4.00;;;3.00;93.60;;;;;;5067891;28;20901;-74
2023/03/16 05:16:00;;;;;;;4.90;4.40;;;3.00;93.80;;;;;;5078157;28;20429;-75
2023/03/16 05:18:27;;;;;;;6.18;4.60;;;2.90;93.90;;;;;;5081139;28;20708;-74
2023/03/16 05:20:56;;;;;;;5.13;4.63;;;2.90;94.00;;;;;;5085953;28;20428;-74
2023/03/16 05:23:23;;;;;;;4.72;4.22;;;3.00;93.60;;;;;;5073416;28;20409;-73
2023/03/16 05:25:50;;;;;;;5.47;4.50;;;3.00;93.90;;;;;;5088040;28;20905;-74
2023/03/16 05:28:17;;;;;;;5.95;4.20;;;3.00;93.70;;;;;;5100929;28;20508;-73
2023/03/16 05:30:45;;;;;;;5.00;4.40;;;3.00;94.00;;;;;;5101438;28;20412;-75
2023/03/16 05:33:12;;;;;;;5.00;4.47;;;3.00;94.10;;;;;;5086611;28;20802;-73
2023/03/16 05:35:38;;;;;;;5.40;4.30;;;3.00;94.20;;;;;;5077814;28;20438;-73
2023/03/16 05:38:07;;;;;;;5.30;4.65;;;3.00;94.10;;;;;;5101622;28;20426;-73
2023/03/16 05:40:34;;;;;;;5.70;5.10;;;3.00;94.20;;;;;;5084958;28;20407;-74
2023/03/16 05:43:01;;;;;;;5.60;5.10;;;3.00;94.10;;;;;;5079365;28;20403;-74
2023/03/16 05:45:28;;;;;;;6.03;5.20;;;3.10;94.00;;;;;;5075542;28;20443;-75
2023/03/16 05:47:55;;;;;;;5.90;5.30;;;3.00;93.90;;;;;;5063844;28;20431;-75
2023/03/16 05:50:22;;;;;;;6.97;5.70;;;3.10;93.90;;;;;;5080724;28;20448;-74
2023/03/16 05:52:49;;;;;;;6.10;5.50;;;3.10;94.00;;;;;;5069175;28;20415;-75
2023/03/16 05:55:18;;;;;;;6.50;5.50;;;3.00;94.00;;;;;;5051138;28;20436;-75
2023/03/16 05:57:45;;;;;;;6.82;5.78;;;3.00;94.00;;;;;;5076961;28;20431;-74
2023/03/16 06:00:15;;;;;;;7.10;5.60;;;3.10;94.00;;;;;;5051846;28;20417;-75
2023/03/16 06:02:42;;;;;;;6.38;5.70;;;3.10;94.20;;;;;;5051163;28;20433;-75
2023/03/16 06:05:09;;;;;;;6.28;5.20;;;3.10;94.10;;;;;;5056371;28;20721;-74
2023/03/16 06:07:36;;;;;;;5.68;4.97;;;3.10;94.10;;;;;;5047850;28;20435;-74
2023/03/16 06:10:04;;;;;;;6.55;5.13;;;3.10;94.00;;;;;;5072957;28;20754;-78
2023/03/16 06:12:33;;;;;;;5.60;5.10;;;3.10;94.00;;;;;;5065468;28;20432;-79
2023/03/16 06:15:00;;;;;;;6.80;5.43;;;3.10;93.80;;;;;;5066174;28;20932;-77
2023/03/16 06:17:27;;;;;;;5.80;5.30;;;3.20;94.00;;;;;;5060274;28;20451;-78
2023/03/16 06:19:54;;;;;;;6.40;5.80;;;3.20;93.90;;;;;;5080253;28;20435;-79
2023/03/16 06:22:20;;;;;;;5.47;4.97;;;3.20;93.70;;;;;;5069300;28;20426;-78
2023/03/16 06:24:50;;;;;;;6.20;5.30;;;3.30;93.40;;;;;;5087864;28;20433;-78
2023/03/16 06:27:19;;;;;;;6.38;5.78;;;3.30;93.70;;;;;;5058409;28;20403;-77
2023/03/16 06:29:47;;;;;;;5.40;4.90;;;3.40;93.20;;;;;;5079711;28;20420;-78
2023/03/16 06:32:14;;;;;;;5.80;5.10;;;3.50;93.20;;;;;;5056858;28;20433;-80
2023/03/16 06:34:41;;;;;;;5.40;4.88;;;3.50;92.60;;;;;;5070541;28;20474;-81
2023/03/16 06:37:08;;;;;;;5.70;5.20;;;3.60;92.30;;;;;;5070030;28;20912;-79
2023/03/16 06:39:43;;;;;;;6.03;5.50;;;3.70;92.20;;;;;;5077693;28;20431;-79
2023/03/16 06:42:10;;;;;;;6.25;5.15;;;3.70;91.80;;;;;;5082883;28;20425;-78
2023/03/16 06:44:38;;;;;;;5.88;5.28;;;3.80;91.60;;;;;;5064433;28;20432;-78
2023/03/16 06:47:06;;;;;;;5.68;5.18;;;3.80;91.50;;;;;;5081772;28;20424;-79
2023/03/16 06:49:33;;;;;;;6.40;5.80;;;3.90;91.40;;;;;;5084010;28;20430;-78
2023/03/16 06:52:02;;;;;;;6.00;5.45;;;3.90;91.20;;;;;;5069507;28;20423;-78
2023/03/16 06:54:31;;;;;;;5.88;5.38;;;4.00;91.10;;;;;;5085386;28;20503;-78
2023/03/16 06:56:58;;;;;;;5.80;5.30;;;4.00;90.70;;;;;;5092368;28;20444;-78
2023/03/16 06:59:25;;;;;;;5.50;5.00;;;4.10;90.90;;;;;;5081729;28;20439;-78
2023/03/16 07:01:52;;;;;;;5.10;4.70;;;4.10;90.60;;;;;;5065626;28;20433;-79
2023/03/16 07:04:20;;;;;;;6.00;4.95;;;4.10;90.10;;;;;;5065400;28;20511;-79
2023/03/16 07:06:47;;;;;;;6.25;5.65;;;4.20;90.10;;;;;;5077526;28;20411;-78
2023/03/16 07:09:14;;;;;;;5.55;5.05;;;4.20;90.20;;;;;;5062636;28;20896;-79
2023/03/16 07:11:40;;;;;;;6.30;5.70;;;4.30;89.50;;;;;;5073541;28;21303;-79
2023/03/16 07:14:07;;;;;;;5.80;5.20;;;4.30;90.00;;;;;;5067632;28;20434;-76
2023/03/16 07:16:34;;;;;;;6.10;5.50;;;4.40;89.60;;;;;;5060983;28;20814;-75
2023/03/16 07:19:01;;;;;;;6.10;5.50;;;4.40;89.20;;;;;;5064792;28;20439;-75
2023/03/16 07:21:30;;;;;;;5.90;5.40;;;4.50;88.70;;;;;;5076458;28;20431;-75
2023/03/16 07:23:57;;;;;;;5.60;5.10;;;4.50;88.50;;;;;;5058466;28;20535;-74
2023/03/16 07:26:24;;;;;;;5.95;5.35;;;4.60;87.80;;;;;;5074320;28;20432;-74
2023/03/16 07:28:51;;;;;;;5.60;5.10;;;4.60;87.70;;;;;;5064034;28;20432;-77
2023/03/16 07:31:17;;;;;;;5.70;5.20;;;4.70;87.60;;;;;;5067692;28;20449;-74
2023/03/16 07:33:44;;;;;;;5.80;5.20;;;4.70;86.80;;;;;;5069336;28;20436;-73
2023/03/16 07:36:11;;;;;;;5.80;5.30;;;4.80;87.50;;;;;;5086213;28;20522;-74
2023/03/16 07:38:40;;;;;;;6.40;5.80;;;4.80;87.30;;;;;;5086749;28;20436;-74
2023/03/16 07:41:07;;;;;;;5.50;5.10;;;4.90;86.40;;;;;;5070797;28;20440;-74
2023/03/16 07:43:34;;;;;;;5.68;5.20;;;5.00;86.60;;;;;;5082968;28;20420;-74
2023/03/16 07:46:01;;;;;;;5.80;5.10;;;5.10;85.30;;;;;;5067128;28;20577;-75
2023/03/16 07:48:28;;;;;;;5.22;4.82;;;5.20;84.80;;;;;;5077358;28;20427;-75
2023/03/16 07:50:55;;;;;;;5.75;5.15;;;5.20;83.90;;;;;;5081914;28;20458;-75
2023/03/16 07:53:21;;;;;;;5.43;4.93;;;5.30;84.30;;;;;;5060617;28;20452;-74
2023/03/16 07:55:49;;;;;;;5.80;5.30;;;5.30;83.60;;;;;;5069664;28;20456;-74
2023/03/16 07:58:17;;;;;;;5.28;4.88;;;5.30;84.00;;;;;;5069507;28;20835;-74
2023/03/16 08:00:43;;;;;;;5.47;4.97;;;5.40;83.40;;;;;;5075878;28;20439;-75
2023/03/16 08:03:10;;;;;;;5.10;4.70;;;5.40;83.40;;;;;;5072416;28;20841;-75
2023/03/16 08:05:37;;;;;;;5.10;4.60;;;5.40;83.70;;;;;;5069397;28;20412;-75
2023/03/16 08:08:04;;;;;;;5.07;4.68;;;5.40;83.10;;;;;;5078783;28;20406;-74
2023/03/16 08:10:32;;;;;;;5.43;5.03;;;5.40;82.60;;;;;;5080249;28;20435;-75
2023/03/16 08:13:00;;;;;;;5.60;5.00;;;5.40;82.40;;;;;;5082098;28;20418;-76
2023/03/16 08:15:27;;;;;;;5.78;5.20;;;5.50;82.60;;;;;;5078905;28;20429;-75
2023/03/16 08:17:54;;;;;;;6.15;4.72;;;5.60;82.50;;;;;;5074445;28;20450;-75
2023/03/16 08:20:21;;;;;;;5.15;4.65;;;5.70;81.90;;;;;;5074799;28;20914;-75
2023/03/16 08:22:48;;;;;;;6.38;5.65;;;5.70;81.80;;;;;;5083978;28;20487;-76
2023/03/16 08:25:18;;;;;;;5.70;5.20;;;5.90;80.70;;;;;;5070312;28;20427;-76
2023/03/16 08:27:45;;;;;;;5.40;4.90;;;6.00;80.30;;;;;;5069786;28;20599;-75
2023/03/16 08:30:15;;;;;;;5.50;5.00;;;6.00;79.80;;;;;;5075366;28;20945;-74
2023/03/16 08:32:42;;;;;;;5.30;4.80;;;6.10;80.10;;;;;;5063700;28;20431;-75
2023/03/16 08:35:12;;;;;;;5.55;5.05;;;6.20;78.70;;;;;;5079163;28;20421;-76
2023/03/16 08:37:39;;;;;;;5.20;4.70;;;6.20;79.00;;;;;;5061444;28;20431;-76
2023/03/16 08:40:09;;;;;;;4.90;4.50;;;6.30;78.20;;;;;;5062390;28;20415;-75
2023/03/16 08:42:37;;;;;;;6.53;4.88;;;6.30;78.10;;;;;;5064971;28;20862;-76
2023/03/16 08:45:08;;;;;;;4.95;4.50;;;6.40;78.00;;;;;;5064261;28;20490;-76
2023/03/16 08:47:37;;;;;;;5.10;4.53;;;6.50;77.50;;;;;;5074087;28;20419;-77
2023/03/16 08:50:05;;;;;;;5.30;4.80;;;6.60;76.70;;;;;;5066583;28;20530;-77
2023/03/16 08:52:32;;;;;;;5.57;5.00;;;6.50;75.70;;;;;;5061532;28;20473;-77
2023/03/16 08:54:59;;;;;;;5.57;5.07;;;6.40;77.60;;;;;;5070783;28;20466;-76
2023/03/16 08:57:26;;;;;;;5.60;5.10;;;6.40;76.30;;;;;;5068882;28;20439;-77
2023/03/16 08:59:52;;;;;;;5.40;4.90;;;6.40;76.50;;;;;;5072549;28;20467;-75
2023/03/16 09:02:19;;;;;;;5.10;4.70;;;6.40;76.40;;;;;;5066234;28;20435;-65
2023/03/16 09:04:48;;;;;;;5.50;5.00;;;6.50;76.80;;;;;;5059320;28;20435;-78
2023/03/16 09:07:15;;;;;;;4.80;4.40;;;6.70;76.20;;;;;;5070114;28;20453;-79
2023/03/16 09:09:42;;;;;;;4.90;4.50;;;6.70;75.80;;;;;;5065331;28;20446;-78
2023/03/16 09:12:09;;;;;;;5.70;5.05;;;6.90;75.50;;;;;;5056036;28;20442;-79
2023/03/16 09:14:38;;;;;;;5.90;5.30;;;6.90;75.00;;;;;;5066716;28;20633;-67
2023/03/16 09:17:06;;;;;;;5.50;5.00;;;6.90;74.20;;;;;;5058112;28;20431;-68
2023/03/16 09:19:33;;;;;;;5.85;5.35;;;7.00;78.50;;;;;;5064539;28;20824;-67
2023/03/16 09:22:01;;;;;;;5.65;5.15;;;7.00;75.30;;;;;;5056987;28;20790;-74
2023/03/16 09:24:28;;;;;;;5.55;5.15;;;7.10;74.30;;;;;;5064564;28;20541;-74
2023/03/16 09:26:55;;;;;;;5.60;5.10;;;7.20;76.10;;;;;;5073442;28;20442;-73
2023/03/16 09:29:22;;;;;;;5.53;5.03;;;7.20;74.80;;;;;;5062308;28;20431;-74
2023/03/16 09:31:49;;;;;;;7.03;5.50;;;7.40;74.60;;;;;;5068016;28;20512;-73
2023/03/16 09:34:16;;;;;;;5.70;5.30;;;7.60;73.30;;;;;;5054407;28;20667;-73
2023/03/16 09:36:42;;;;;;;5.50;5.10;;;7.80;71.90;;;;;;5051958;28;20429;-73
2023/03/16 09:39:12;;;;;;;8.30;5.70;;;7.70;71.30;;;;;;5062649;28;20791;-75
2023/03/16 09:41:46;;;;;;;5.95;5.35;;;7.80;71.90;;;;;;5057658;28;20446;-74
2023/03/16 09:44:31;;;;;;;6.40;5.80;;;7.90;71.40;;;;;;5057830;28;20569;-75
2023/03/16 09:47:01;;;;;;;5.75;5.25;;;7.90;71.10;;;;;;5054787;28;20427;-74
2023/03/16 09:49:35;;;;;;;5.70;5.20;;;7.90;71.10;;;;;;5062925;28;20418;-73
2023/03/16 09:52:12;;;;;;;6.28;5.68;;;7.80;71.20;;;;;;5062869;28;20484;-74
2023/03/16 09:57:47;;;;;;;5.78;5.28;;;7.70;72.60;;;;;;5050546;28;20496;-72
2023/03/16 10:06:31;;;;;;;5.60;4.88;;;7.50;72.20;;;;;;5063549;28;20456;-73
2023/03/16 10:09:07;;;;;;;5.68;5.18;;;7.40;73.30;;;;;;5055908;28;20888;-73
2023/03/16 10:11:40;;;;;;;5.20;4.80;;;7.40;71.90;;;;;;5053348;28;20750;-73
2023/03/16 10:14:16;;;;;;;6.45;4.80;;;7.30;72.60;;;;;;5059001;28;20431;-73
2023/03/16 10:16:47;;;;;;;5.80;5.20;;;7.30;72.60;;;;;;5057151;28;20427;-76
2023/03/16 10:19:19;;;;;;;4.88;4.30;;;7.40;71.30;;;;;;5057843;28;20474;-73
2023/03/16 10:21:48;;;;;;;5.35;4.85;;;7.50;72.50;;;;;;5063198;28;20430;-74
2023/03/16 10:24:25;;;;;;;4.90;4.50;;;7.40;71.30;;;;;;5055892;28;20436;-75
2023/03/16 10:26:58;;;;;;;5.35;4.80;;;7.50;71.60;;;;;;5057084;28;20571;-75
2023/03/16 10:29:26;;;;;;;5.13;4.63;;;7.70;71.80;;;;;;5080286;28;20483;-75
2023/03/16 10:31:59;;;;;;;5.23;4.83;;;7.90;70.30;;;;;;5055889;28;20452;-75
2023/03/16 10:34:26;;;;;;;5.38;4.97;;;7.90;68.90;;;;;;5054502;28;20429;-73
2023/03/16 10:36:54;;;;;;;5.20;4.70;;;7.90;69.60;;;;;;5073837;28;20421;-74
2023/03/16 10:39:21;;;;;;;6.28;5.70;;;8.20;67.90;;;;;;5061438;28;20738;-78
2023/03/16 10:41:57;;;;;;;5.90;5.30;;;8.30;67.10;;;;;;5058995;28;20440;-77
2023/03/16 10:44:25;;;;;;;5.53;5.03;;;8.40;66.80;;;;;;5068932;28;20426;-77
2023/03/16 10:47:00;;;;;;;5.00;4.60;;;8.40;66.60;;;;;;5064308;28;20453;-75
2023/03/16 10:49:28;;;;;;;5.53;4.68;;;8.50;66.30;;;;;;5056982;28;20427;-77
2023/03/16 10:51:58;;;;;;;5.10;4.40;;;8.50;65.30;;;;;;5070892;28;20438;-75
2023/03/16 10:54:29;;;;;;;4.90;4.50;;;8.60;65.90;;;;;;5053419;28;20448;-77
2023/03/16 10:56:59;;;;;;;4.50;4.10;;;8.60;66.00;;;;;;5063958;28;20440;-75
2023/03/16 10:59:33;;;;;;;5.47;4.97;;;8.70;65.70;;;;;;5062035;28;20427;-76
2023/03/16 11:02:01;;;;;;;5.20;4.70;;;9.00;65.10;;;;;;5063532;28;20981;-76
2023/03/16 11:04:32;;;;;;;4.80;4.40;;;9.10;65.00;;;;;;5072837;28;20792;-74
2023/03/16 11:06:59;;;;;;;4.63;4.20;;;9.40;61.60;;;;;;5072969;28;20429;-74
2023/03/16 11:09:31;;;;;;;4.18;3.88;;;9.90;61.90;;;;;;5063249;28;20433;-77
2023/03/16 11:12:02;;;;;;;4.60;4.10;;;10.40;58.10;;;;;;5066689;28;20473;-76
2023/03/16 11:14:29;;;;;;;5.70;4.40;;;10.50;58.30;;;;;;5072684;28;20412;-76
2023/03/16 11:17:02;;;;;;;4.10;3.70;;;10.40;58.10;;;;;;5082618;28;20450;-74
2023/03/16 11:19:31;;;;;;;5.10;4.70;;;10.60;58.70;;;;;;5090833;28;20435;-76
2023/03/16 11:22:06;;;;;;;4.57;3.92;;;10.70;57.40;;;;;;5068422;28;20427;-75
2023/03/16 11:24:41;;;;;;;4.07;3.78;;;10.60;57.60;;;;;;5065449;28;20977;-76
2023/03/16 11:27:20;;;;;;;4.20;3.80;;;10.40;57.70;;;;;;5064915;28;20436;-74
2023/03/16 11:29:59;;;;;;;4.32;3.92;;;10.50;58.00;;;;;;5071113;28;20864;-75
2023/03/16 11:32:30;;;;;;;3.70;3.40;;;10.90;57.10;;;;;;5077113;28;20483;-75
2023/03/16 11:34:57;;;;;;;4.00;3.60;;;11.40;54.90;;;;;;5065938;28;20448;-74
2023/03/16 11:37:36;;;;;;;3.63;3.33;;;11.80;53.30;;;;;;5069227;28;20413;-74
2023/03/16 11:40:29;;;;;;;3.72;3.30;;;12.00;52.00;;;;;;5063206;28;20437;-75
2023/03/16 11:43:09;;;;;;;5.10;3.58;;;11.80;53.00;;;;;;5072436;28;20452;-74
2023/03/16 11:45:42;;;;;;;3.80;3.50;;;11.80;52.60;;;;;;5060517;28;20516;-74
2023/03/16 11:48:25;;;;;;;4.60;3.20;;;11.80;52.90;;;;;;5068976;28;20422;-75
2023/03/16 11:51:05;;;;;;;3.90;3.08;;;11.70;52.20;;;;;;5057491;28;20437;-75
2023/03/16 11:53:46;;;;;;;3.63;3.33;;;12.20;51.70;;;;;;5073860;28;20873;-75
2023/03/16 11:56:20;;;;;;;3.40;2.85;;;12.30;50.80;;;;;;5065648;28;20797;-75
2023/03/16 11:59:00;;;;;;;3.40;3.10;;;12.20;50.90;;;;;;5062350;28;20443;-74
2023/03/16 12:01:38;;;;;;;3.40;3.10;;;12.50;51.00;;;;;;5065269;28;20518;-75
2023/03/16 12:04:37;;;;;;;3.38;3.00;;;13.10;49.30;;;;;;5058818;28;20436;-65
2023/03/16 12:07:17;;;;;;;3.40;3.00;;;13.90;47.80;;;;;;5073869;28;20436;-64
2023/03/16 12:10:05;;;;;;;3.45;3.10;;;14.00;46.60;;;;;;5062860;28;20519;-73
2023/03/16 12:12:45;;;;;;;3.40;3.08;;;13.80;46.70;;;;;;5069674;28;20431;-73
2023/03/16 12:15:24;;;;;;;4.75;3.30;;;13.40;46.90;;;;;;5076019;28;20427;-75
2023/03/16 12:17:56;;;;;;;3.72;3.00;;;13.90;48.30;;;;;;5060057;28;20952;-76
2023/03/16 12:20:27;;;;;;;3.20;2.90;;;14.60;46.60;;;;;;5061445;28;20478;-75
2023/03/16 12:22:59;;;;;;;3.05;2.78;;;15.60;43.60;;;;;;5073584;28;20538;-76
2023/03/16 12:25:31;;;;;;;3.30;2.70;;;15.30;44.10;;;;;;5076358;28;20554;-77
2023/03/16 12:28:00;;;;;;;4.43;2.90;;;15.20;44.20;;;;;;5072950;28;20446;-76
2023/03/16 12:30:43;;;;;;;4.63;3.38;;;14.90;44.30;;;;;;5057842;28;20433;-77
2023/03/16 12:33:18;;;;;;;3.35;2.72;;;14.20;45.80;;;;;;5059783;28;20913;-77
2023/03/16 12:35:49;;;;;;;3.28;2.97;;;13.40;48.20;;;;;;5071993;28;20415;-76
2023/03/16 12:38:29;;;;;;;3.15;2.85;;;12.50;49.50;;;;;;5078901;28;20495;-76
2023/03/16 12:41:06;;;;;;;3.38;3.08;;;12.30;51.70;;;;;;5079937;28;20412;-77
2023/03/16 12:43:46;;;;;;;3.30;3.00;;;12.40;50.80;;;;;;5076188;28;20417;-77
2023/03/16 12:46:23;;;;;;;4.10;3.13;;;12.50;51.20;;;;;;5088158;28;20442;-76
2023/03/16 12:48:54;;;;;;;4.45;3.17;;;12.60;50.50;;;;;;5089715;28;20422;-77
2023/03/16 12:51:20;;;;;;;3.33;2.90;;;12.20;50.70;;;;;;5070189;28;20804;-76
2023/03/16 12:53:54;;;;;;;2.75;2.55;;;12.20;51.10;;;;;;5081244;28;20436;-76
2023/03/16 12:56:28;;;;;;;4.18;2.80;;;12.00;51.40;;;;;;5072454;28;20448;-76
2023/03/16 12:58:57;;;;;;;3.40;3.10;;;11.80;51.80;;;;;;5059690;28;20448;-76
2023/03/16 13:01:28;;;;;;;3.20;2.90;;;11.80;52.10;;;;;;5067704;28;20415;-75
2023/03/16 13:04:02;;;;;;;3.22;2.95;;;11.90;51.90;;;;;;5064210;28;20419;-82
2023/03/16 13:06:34;;;;;;;3.30;3.00;;;12.00;52.30;;;;;;5065164;28;20424;-77
2023/03/16 13:09:03;;;;;;;2.83;2.53;;;12.20;52.00;;;;;;5057029;28;20947;-76
2023/03/16 13:11:40;;;;;;;3.10;2.70;;;12.10;51.20;;;;;;5062214;28;20878;-77
2023/03/16 13:14:09;;;;;;;2.90;2.22;;;12.10;51.50;;;;;;5063307;28;20984;-76
2023/03/16 13:16:39;;;;;;;3.42;2.88;;;12.30;51.30;;;;;;5066286;28;20429;-76